New Boston, MI

12:59 PM EDT on June 02, 2015 (GMT -0400)
Willow Run | | Change Station
CLOSE
Current Station
Airport
Location: Ypsilanti,
Elevation: 715 ft
Nearby Weather Stations

Elev 715 ft 42.24 °N, 83.53 °W | Updated 6 minutes ago

Clear
Clear
72 °F
Feels Like 72 °F
N
8
Wind Variable Wind from East

Today
High -- | Low -- °F
--% Chance of Precip.
Yesterday
High -- | Low -- °F
Precip. -- in
5:59 AM 9:03 PM
Full, 100% visible
Pressure 30.20 in
Visibility 10.0 miles
Clouds Few 4800 ft
Dew Point 46 °F
Humidity 40%
Rainfall 0.00 in
Snow Depth Not available.
UV 11 out of 12
Pollen 5.90 out of 12
Air Quality Not available.
Flu Activity Sporadic
METAR KYIP 021653Z AUTO 08007KT 050V120 10SM FEW048 22/08 A3020 RMK AO2 SLP225 T02220078 TSNO

More Conditions Fewer Conditions

Pressure 30.20 in
Visibility 10.0 miles
Clouds Few 4800 ft
Dew Point 46 °F
Humidity 40%
Rainfall 0.00 in
Snow Depth Not available.
UV 11 out of 12
Pollen 5.90 out of 12
Air Quality Not available.
Flu Activity Sporadic
METAR KYIP 021653Z AUTO 08007KT 050V120 10SM FEW048 22/08 A3020 RMK AO2 SLP225 T02220078 TSNO

More Conditions Fewer Conditions

10-Day Weather Forecast

Almanac

Astronomy

Jun. 02, 2015 Rise Set
Actual Time
Civil Twilight
Nautical Twilight
Astronomical Twilight
Moon
Length of Visible Light
Length of Day
Tomorrow will be .
, % of the Moon is Illuminated

Today's Extremes

State Highs State Lows

Community

WunderPhotos

Upload Photos

1,825,980 photos uploaded!

WunderBlogs® & News

Nearby

Air Quality

  Air Quality AQ Index Pollutant
Not available.

Snow Depth

Station Depth Elevation

Earthquake Activity

City Distance Mag. Time & Date
Minimum magnitude displayed is 2.5.

Coastal Water Temperatures

Place Temperature

Stations

Nearby Weather Stations

Station Location Temp. Windchill Dew Point Humidity Wind Precip. Elev Updated Type